Current Conditions
Overcast
Conditions



Pressure
1019.92 (hPa) - 30.12 (inHG)
Visibility

10.0 (km) - 6.2 (miles)
   Temperature
11  °C
52°F
9  °C
Dewpoint
88  %
 Humidity
   Wind Speed
14  km/h
8  kts
9  mph
4.0  m/s
   Wind Direction
 200°
South South
West
   Airport Data
EHLW
Location Leeuwarden Air Base 10 km (6.22 mi)
Metar :EHLW 180155Z AUTO 20008KT 160V230 9999 OVC050 11/09 Q1020 BLU
Mon 18th October 03:55 am
   Raw Metar Info
Raw METAR is the most common format in the world for the transmission of observational weather data. It is highly standardized through the International Civil Aviation Organization (ICAO), which allows it to be understood throughout most of the world.
   API Info
Data Provided by
https://www.checkwx.com/weather/EHLW
   © Info
CSS/SVG/PHP scripts were developed by weather34.com for use in the weather34 template © 2015-2021

Guide Info provided by Metar-Wikipedia